Time;durP1;ratioP1;P1;durP2;ratioP2;P2;SDS_P1;SDS_P2;PMS_P1;PMS_P2;Temp;Humidity;BMP_temperature;BMP_pressure;BME280_temperature;BME280_humidity;BME280_pressure;Samples;Min_cycle;Max_cycle;Signal;HPM_P1;HPM_P2
2022/10/13 00:01:12;;;;;;;23.40;11.32;;;11.00;99.90;;;;;;5144583;27;20126;-78
2022/10/13 00:03:39;;;;;;;22.30;11.95;;;9.90;99.90;;;;;;5143118;27;20039;-78
2022/10/13 00:06:06;;;;;;;22.52;10.70;;;10.80;99.90;;;;;;5115701;27;20043;-77
2022/10/13 00:08:32;;;;;;;21.08;12.43;;;10.70;99.90;;;;;;5152382;27;20103;-76
2022/10/13 00:10:59;;;;;;;21.92;12.02;;;9.90;99.90;;;;;;5108888;27;20043;-78
2022/10/13 00:13:25;;;;;;;23.42;11.77;;;10.00;99.90;;;;;;5132471;27;20045;-76
2022/10/13 00:15:51;;;;;;;20.10;10.80;;;9.90;99.90;;;;;;5153328;27;20039;-77
2022/10/13 00:18:17;;;;;;;19.55;10.85;;;9.90;99.90;;;;;;5105445;27;20556;-76
2022/10/13 00:20:45;;;;;;;19.00;11.15;;;10.10;99.90;;;;;;5151889;27;20451;-76
2022/10/13 00:23:12;;;;;;;22.50;11.07;;;9.10;99.90;;;;;;5120680;27;20036;-76
2022/10/13 00:25:43;;;;;;;18.63;10.32;;;9.80;99.90;;;;;;5127982;27;20367;-77
2022/10/13 00:28:09;;;;;;;20.52;11.43;;;9.90;99.90;;;;;;5127703;27;20045;-76
2022/10/13 00:30:35;;;;;;;19.38;11.10;;;10.90;99.90;;;;;;5128499;27;20100;-77
2022/10/13 00:33:01;;;;;;;17.98;10.43;;;10.70;99.90;;;;;;5105405;27;20039;-78
2022/10/13 00:35:27;;;;;;;18.50;10.82;;;11.30;99.90;;;;;;5144012;27;20500;-79
2022/10/13 00:37:52;;;;;;;27.42;12.18;;;10.00;99.90;;;;;;5133133;27;20054;-77
2022/10/13 00:40:18;;;;;;;24.90;10.90;;;10.00;99.90;;;;;;5148235;27;20552;-78
2022/10/13 00:42:44;;;;;;;17.00;10.68;;;11.50;99.90;;;;;;5131114;27;20408;-77
2022/10/13 00:45:20;;;;;;;24.52;11.88;;;11.50;99.90;;;;;;5128299;27;20129;-78
2022/10/13 00:47:51;;;;;;;17.88;11.05;;;9.80;99.90;;;;;;5149663;27;20042;-77
2022/10/13 00:50:20;;;;;;;24.08;11.23;;;11.90;99.90;;;;;;5127035;27;20035;-79
2022/10/13 00:52:47;;;;;;;17.58;10.98;;;10.50;99.90;;;;;;5123546;27;20139;-79
2022/10/13 00:55:17;;;;;;;19.77;11.13;;;9.90;99.90;;;;;;5149296;27;20566;-78
2022/10/13 00:57:45;;;;;;;18.58;11.38;;;9.30;99.90;;;;;;5132504;27;20149;-77
2022/10/13 01:00:11;;;;;;;24.10;12.35;;;10.00;99.90;;;;;;5150068;27;20095;-78
2022/10/13 01:02:37;;;;;;;21.27;11.75;;;10.00;99.90;;;;;;5089922;27;20126;-77
2022/10/13 01:05:05;;;;;;;28.33;11.90;;;10.00;99.90;;;;;;5143798;27;20593;-76
2022/10/13 01:07:33;;;;;;;21.98;12.55;;;10.00;99.90;;;;;;5115984;27;20070;-76
2022/10/13 01:10:00;;;;;;;17.67;10.70;;;10.00;99.90;;;;;;5128802;27;20494;-77
2022/10/13 01:12:58;;;;;;;24.45;12.02;;;11.80;99.90;;;;;;5141757;27;20058;-79
2022/10/13 01:15:34;;;;;;;22.27;12.00;;;10.00;99.90;;;;;;5132219;27;20045;-77
2022/10/13 01:17:59;;;;;;;20.20;11.43;;;10.00;99.90;;;;;;5127592;27;20046;-78
2022/10/13 01:20:44;;;;;;;22.35;11.35;;;10.00;99.90;;;;;;5131360;27;20038;-76
2022/10/13 01:23:13;;;;;;;21.52;12.50;;;9.90;99.90;;;;;;5127749;27;20049;-76
2022/10/13 01:25:47;;;;;;;22.38;12.18;;;9.90;99.90;;;;;;5106877;27;20047;-77
2022/10/13 01:28:32;;;;;;;25.38;11.65;;;9.90;99.90;;;;;;5130924;27;20130;-77
2022/10/13 01:31:03;;;;;;;;;;;9.90;99.90;;;;;;5120672;27;20497;-79
2022/10/13 01:33:47;;;;;;;18.25;10.98;;;9.90;99.90;;;;;;5108962;27;19935;-78
2022/10/13 01:36:24;;;;;;;24.67;11.20;;;11.60;99.90;;;;;;5103590;27;20047;-78
2022/10/13 01:39:12;;;;;;;21.77;11.90;;;9.90;99.90;;;;;;5104244;27;20043;-79
2022/10/13 01:41:42;;;;;;;24.10;12.27;;;10.20;99.90;;;;;;5125494;27;20043;-79
2022/10/13 01:44:27;;;;;;;21.88;12.20;;;9.90;99.90;;;;;;5126787;27;20088;-78
2022/10/13 01:46:55;;;;;;;20.00;12.32;;;10.00;99.90;;;;;;5111603;27;20071;-79
2022/10/13 01:49:24;;;;;;;21.02;11.75;;;10.00;99.90;;;;;;5111626;27;20094;-78
2022/10/13 01:51:53;;;;;;;20.83;11.35;;;10.00;99.90;;;;;;5106681;27;20693;-78
2022/10/13 01:54:18;;;;;;;23.58;11.80;;;10.00;99.90;;;;;;5145164;27;20053;-77
2022/10/13 01:56:55;;;;;;;21.13;11.43;;;11.90;99.90;;;;;;5130316;27;20540;-78
2022/10/13 01:59:23;;;;;;;19.10;12.70;;;11.80;99.90;;;;;;5113690;27;20133;-76
2022/10/13 02:02:09;;;;;;;22.80;12.15;;;10.00;99.90;;;;;;5105961;27;20498;-78
2022/10/13 02:04:49;;;;;;;26.35;12.57;;;11.00;99.90;;;;;;5124760;27;20042;-77
2022/10/13 02:07:34;;;;;;;23.27;12.20;;;9.90;99.90;;;;;;5144578;27;20386;-77
2022/10/13 02:10:00;;;;;;;24.20;11.95;;;10.70;99.90;;;;;;5121293;27;20541;-77
2022/10/13 02:12:35;;;;;;;19.80;12.02;;;9.90;99.90;;;;;;5105464;27;20074;-77
2022/10/13 02:15:03;;;;;;;23.80;12.65;;;10.40;99.90;;;;;;5146959;27;20042;-77
2022/10/13 02:17:30;;;;;;;19.17;12.60;;;10.00;99.90;;;;;;5130867;27;20371;-78
2022/10/13 02:19:57;;;;;;;23.63;12.35;;;9.90;99.90;;;;;;5102287;27;20054;-77
2022/10/13 02:22:29;;;;;;;19.20;12.77;;;9.90;99.90;;;;;;5105605;27;20046;-76
2022/10/13 02:24:58;;;;;;;21.30;11.88;;;11.30;99.90;;;;;;5102324;27;20239;-77
2022/10/13 02:27:24;;;;;;;18.67;12.27;;;10.80;99.90;;;;;;5148372;27;20069;-76
2022/10/13 02:29:55;;;;;;;22.60;12.07;;;9.90;99.90;;;;;;5143839;27;20051;-76
2022/10/13 02:32:22;;;;;;;25.98;12.98;;;10.20;99.90;;;;;;5126556;27;20073;-76
2022/10/13 02:34:51;;;;;;;18.63;12.32;;;11.10;99.90;;;;;;5110091;27;20050;-78
2022/10/13 02:37:17;;;;;;;19.70;12.23;;;10.90;99.90;;;;;;5139542;27;20083;-77
2022/10/13 02:39:42;;;;;;;21.25;12.55;;;9.90;99.90;;;;;;5141620;27;20065;-78
2022/10/13 02:42:08;;;;;;;23.05;12.07;;;9.90;99.90;;;;;;5119990;27;20054;-78
2022/10/13 02:44:34;;;;;;;27.60;13.55;;;10.60;99.90;;;;;;5101897;28;20039;-77
2022/10/13 02:47:02;;;;;;;28.40;13.77;;;9.80;99.90;;;;;;5110846;27;20494;-78
2022/10/13 02:49:28;;;;;;;22.95;12.90;;;9.80;99.90;;;;;;5140306;27;20030;-78
2022/10/13 02:51:54;;;;;;;24.73;13.15;;;10.10;99.90;;;;;;5120933;27;20061;-78
2022/10/13 02:54:19;;;;;;;21.10;13.07;;;9.80;99.90;;;;;;5115690;27;20039;-78
2022/10/13 02:56:45;;;;;;;21.23;12.55;;;9.60;99.90;;;;;;5147625;27;20492;-78
2022/10/13 02:59:11;;;;;;;23.40;13.05;;;9.80;99.90;;;;;;5149008;27;20045;-78
2022/10/13 03:01:40;;;;;;;21.15;13.13;;;9.80;99.90;;;;;;5118341;27;20050;-78
2022/10/13 03:04:07;;;;;;;21.77;13.90;;;11.60;99.90;;;;;;5149242;27;20448;-79
2022/10/13 03:06:32;;;;;;;22.73;12.98;;;11.30;99.90;;;;;;5141200;27;20042;-78
2022/10/13 03:08:58;;;;;;;20.88;13.13;;;9.80;99.90;;;;;;5148615;27;20043;-78
2022/10/13 03:11:27;;;;;;;20.75;13.73;;;9.80;99.90;;;;;;5110944;27;20122;-76
2022/10/13 03:13:53;;;;;;;24.33;13.85;;;9.80;99.90;;;;;;5128317;27;20042;-76
2022/10/13 03:16:19;;;;;;;22.48;13.70;;;9.80;99.90;;;;;;5147581;27;20083;-77
2022/10/13 03:18:44;;;;;;;23.48;14.10;;;9.90;99.90;;;;;;5114304;27;20062;-77
2022/10/13 03:21:10;;;;;;;19.88;13.35;;;8.80;99.90;;;;;;5145859;27;20506;-78
2022/10/13 03:23:36;;;;;;;22.20;13.48;;;9.80;99.90;;;;;;5140756;27;20039;-77
2022/10/13 03:26:03;;;;;;;28.33;14.23;;;9.80;99.90;;;;;;5130531;27;20394;-77
2022/10/13 03:28:29;;;;;;;26.30;13.98;;;9.80;99.90;;;;;;5146275;27;20044;-77
2022/10/13 03:31:06;;;;;;;25.85;14.18;;;11.30;99.90;;;;;;5117611;28;20047;-78
2022/10/13 03:33:32;;;;;;;22.08;14.38;;;9.80;99.90;;;;;;5110386;28;20064;-79
2022/10/13 03:36:00;;;;;;;24.20;14.60;;;11.40;99.90;;;;;;5128923;27;20039;-78
2022/10/13 03:38:27;;;;;;;26.65;13.73;;;9.90;99.90;;;;;;5136524;27;20047;-77
2022/10/13 03:40:52;;;;;;;26.00;14.98;;;9.80;99.90;;;;;;5101455;27;20047;-77
2022/10/13 03:43:18;;;;;;;25.05;14.45;;;9.70;99.90;;;;;;5106511;27;20050;-78
2022/10/13 03:45:44;;;;;;;26.52;16.08;;;10.00;99.90;;;;;;5104970;27;20039;-77
2022/10/13 03:48:09;;;;;;;20.13;13.98;;;11.20;99.90;;;;;;5130964;27;20035;-78
2022/10/13 03:50:36;;;;;;;20.52;12.80;;;9.60;99.90;;;;;;5129507;27;20053;-77
2022/10/13 03:53:02;;;;;;;22.83;15.45;;;9.80;99.90;;;;;;5149631;27;20083;-78
2022/10/13 03:55:27;;;;;;;25.73;15.07;;;9.80;99.90;;;;;;5125770;27;20285;-77
2022/10/13 03:57:53;;;;;;;34.22;16.70;;;10.10;99.90;;;;;;5149669;27;20048;-78
2022/10/13 04:00:19;;;;;;;26.92;15.50;;;9.90;99.90;;;;;;5132703;27;20034;-78
2022/10/13 04:02:48;;;;;;;19.13;14.40;;;10.90;99.90;;;;;;5121030;27;20035;-77
2022/10/13 04:05:13;;;;;;;22.95;13.70;;;9.90;99.90;;;;;;5104824;27;20035;-76
2022/10/13 04:07:39;;;;;;;20.67;13.63;;;9.90;99.90;;;;;;5131529;27;20043;-77
2022/10/13 04:10:05;;;;;;;30.27;15.15;;;9.90;99.90;;;;;;5152543;27;20489;-76
2022/10/13 04:12:31;;;;;;;23.98;15.82;;;9.90;99.90;;;;;;5113433;27;20062;-76
2022/10/13 04:14:59;;;;;;;23.40;15.15;;;10.80;99.90;;;;;;5151070;27;20449;-76
2022/10/13 04:17:25;;;;;;;21.10;14.65;;;10.90;99.90;;;;;;5098005;27;20402;-77
2022/10/13 04:19:50;;;;;;;25.23;15.23;;;9.90;99.90;;;;;;5104191;27;20039;-76
2022/10/13 04:22:16;;;;;;;23.98;16.65;;;9.90;99.90;;;;;;5125391;27;20051;-76
2022/10/13 04:24:42;;;;;;;27.13;16.10;;;9.90;99.90;;;;;;5099485;27;20035;-77
2022/10/13 04:27:08;;;;;;;28.05;16.30;;;9.90;99.90;;;;;;5129071;27;20058;-77
2022/10/13 04:29:33;;;;;;;25.17;15.98;;;11.10;99.90;;;;;;5114496;27;20035;-77
2022/10/13 04:31:59;;;;;;;24.42;15.50;;;9.60;99.90;;;;;;5107585;27;20039;-76
2022/10/13 04:34:25;;;;;;;25.58;15.50;;;10.30;99.90;;;;;;5097331;27;20031;-77
2022/10/13 04:36:50;;;;;;;23.80;15.65;;;9.90;99.90;;;;;;5140630;27;20039;-78
2022/10/13 04:39:17;;;;;;;26.75;16.67;;;10.00;99.90;;;;;;5148889;27;20039;-77
2022/10/13 04:41:43;;;;;;;25.25;16.15;;;9.90;99.90;;;;;;5138947;27;20454;-76
2022/10/13 04:44:08;;;;;;;27.13;15.13;;;10.20;99.90;;;;;;5112140;27;20031;-79
2022/10/13 04:46:34;;;;;;;25.77;17.17;;;10.00;99.90;;;;;;5096124;27;20047;-76
2022/10/13 04:49:00;;;;;;;25.60;15.73;;;10.00;99.90;;;;;;5127384;27;20042;-76
2022/10/13 04:51:26;;;;;;;26.55;16.73;;;10.00;99.90;;;;;;5114306;27;20382;-77
2022/10/13 04:53:59;;;;;;;25.23;16.83;;;10.00;99.90;;;;;;5122688;27;20080;-76
2022/10/13 04:56:26;;;;;;;25.45;17.20;;;10.70;99.90;;;;;;5147534;27;20113;-77
2022/10/13 04:58:54;;;;;;;23.27;16.38;;;10.00;99.90;;;;;;5112916;27;20028;-77
2022/10/13 05:01:22;;;;;;;24.13;16.35;;;9.90;99.90;;;;;;5113207;27;20042;-79
2022/10/13 05:03:56;;;;;;;26.50;16.80;;;9.90;99.90;;;;;;5126343;27;20035;-80
2022/10/13 05:06:24;;;;;;;28.40;16.88;;;10.00;99.90;;;;;;5122950;27;20455;-77
2022/10/13 05:08:50;;;;;;;25.13;16.35;;;9.90;99.90;;;;;;5149152;27;20047;-78
2022/10/13 05:11:18;;;;;;;24.90;17.40;;;10.20;99.90;;;;;;5132558;27;20083;-77
2022/10/13 05:13:44;;;;;;;26.90;17.00;;;9.90;99.90;;;;;;5125432;27;20129;-78
2022/10/13 05:16:12;;;;;;;31.52;17.92;;;10.00;99.90;;;;;;5115089;27;20496;-79
2022/10/13 05:18:38;;;;;;;30.33;18.08;;;10.00;99.90;;;;;;5132988;27;20043;-76
2022/10/13 05:21:16;;;;;;;24.50;16.67;;;9.90;99.90;;;;;;5109186;27;20357;-78
2022/10/13 05:23:44;;;;;;;23.77;17.42;;;9.90;99.90;;;;;;5120624;27;20035;-79
2022/10/13 05:26:16;;;;;;;23.80;17.63;;;10.00;99.90;;;;;;5103019;27;20054;-79
2022/10/13 05:28:43;;;;;;;24.05;17.30;;;10.00;99.90;;;;;;5124448;27;20396;-81
2022/10/13 05:31:20;;;;;;;29.27;17.70;;;9.90;99.90;;;;;;5105359;27;20074;-80
2022/10/13 05:33:47;;;;;;;23.50;18.25;;;11.90;99.90;;;;;;5121151;27;20106;-79
2022/10/13 05:36:24;;;;;;;31.48;17.75;;;10.30;99.90;;;;;;5103284;27;20495;-80
2022/10/13 05:38:56;;;;;;;24.38;17.95;;;10.10;99.90;;;;;;5142455;27;20559;-80
2022/10/13 05:41:23;;;;;;;24.20;17.10;;;10.00;99.90;;;;;;5098549;27;20094;-81
2022/10/13 05:43:51;;;;;;;25.52;17.55;;;10.00;99.90;;;;;;5121349;27;20043;-78
2022/10/13 05:46:17;;;;;;;27.88;19.05;;;10.10;99.90;;;;;;5126916;27;20039;-79
2022/10/13 05:48:43;;;;;;;32.13;18.98;;;9.60;99.90;;;;;;5095451;27;20069;-82
2022/10/13 05:51:13;;;;;;;27.33;18.38;;;11.70;99.90;;;;;;5093994;27;20380;-81
2022/10/13 05:53:43;;;;;;;27.20;18.52;;;10.10;99.90;;;;;;5095820;27;20042;-81
2022/10/13 05:56:18;;;;;;;25.55;19.00;;;11.90;99.90;;;;;;5146535;27;20042;-80
2022/10/13 05:58:49;;;;;;;23.63;17.70;;;10.60;99.90;;;;;;5085898;27;20058;-82
2022/10/13 06:01:18;;;;;;;29.63;19.48;;;10.40;99.90;;;;;;5119557;27;20490;-81
2022/10/13 06:03:48;;;;;;;28.05;19.67;;;10.00;99.90;;;;;;5120092;27;20039;-82
2022/10/13 06:06:25;;;;;;;33.88;20.35;;;10.10;99.90;;;;;;5123473;27;20045;-78
2022/10/13 06:08:52;;;;;;;26.83;18.38;;;10.10;99.90;;;;;;5124987;27;20099;-78
2022/10/13 06:11:18;;;;;;;32.35;19.23;;;10.30;99.90;;;;;;5098103;27;20059;-79
2022/10/13 06:13:43;;;;;;;25.02;19.23;;;10.10;99.90;;;;;;5131267;27;20053;-78
2022/10/13 06:16:09;;;;;;;31.58;19.52;;;10.10;99.90;;;;;;5099268;27;20042;-77
2022/10/13 06:18:35;;;;;;;24.58;19.55;;;10.20;99.90;;;;;;5148988;27;20481;-77
2022/10/13 06:21:01;;;;;;;31.17;20.67;;;9.90;99.90;;;;;;5148500;27;20371;-77
2022/10/13 06:23:26;;;;;;;28.95;19.75;;;12.00;99.90;;;;;;5127703;27;20042;-78
2022/10/13 06:25:52;;;;;;;36.20;22.00;;;12.00;99.90;;;;;;5108193;27;20047;-77
2022/10/13 06:28:19;;;;;;;36.65;22.17;;;10.20;99.90;;;;;;5146568;27;20078;-78
2022/10/13 06:30:56;;;;;;;31.10;20.10;;;10.30;99.90;;;;;;5137778;27;20040;-78
2022/10/13 06:33:23;;;;;;;34.50;22.70;;;10.20;99.90;;;;;;5129060;27;20449;-78
2022/10/13 06:35:52;;;;;;;29.73;20.73;;;10.20;99.90;;;;;;5094388;27;20035;-77
2022/10/13 06:38:19;;;;;;;31.02;20.85;;;10.20;99.90;;;;;;5101395;27;20038;-78
2022/10/13 06:40:45;;;;;;;27.83;21.02;;;10.20;99.90;;;;;;5122524;27;20393;-78
2022/10/13 06:43:10;;;;;;;33.17;22.10;;;11.60;99.90;;;;;;5110835;27;20035;-77
2022/10/13 06:45:36;;;;;;;32.17;22.05;;;10.20;99.90;;;;;;5112842;27;20152;-78
2022/10/13 06:48:02;;;;;;;28.02;20.83;;;10.30;99.90;;;;;;5116554;27;20042;-77
2022/10/13 06:50:28;;;;;;;32.17;21.05;;;10.30;99.90;;;;;;5117353;27;20043;-77
2022/10/13 06:52:55;;;;;;;32.30;21.92;;;10.30;99.90;;;;;;5118510;27;20083;-78
2022/10/13 06:55:21;;;;;;;27.42;20.17;;;10.30;99.90;;;;;;5100352;27;20122;-78
2022/10/13 06:57:46;;;;;;;34.20;21.13;;;10.10;99.90;;;;;;5141064;27;20513;-77
2022/10/13 07:00:12;;;;;;;31.48;20.83;;;12.20;99.90;;;;;;5098572;28;20374;-77
2022/10/13 07:02:38;;;;;;;35.08;21.77;;;10.40;99.90;;;;;;5128259;27;20042;-78
2022/10/13 07:05:04;;;;;;;37.72;23.02;;;11.40;99.90;;;;;;5121281;27;20160;-79
2022/10/13 07:07:30;;;;;;;32.60;21.30;;;10.40;99.90;;;;;;5105503;27;20068;-80
2022/10/13 07:09:56;;;;;;;27.98;21.33;;;10.50;99.90;;;;;;5100072;28;20131;-79
2022/10/13 07:12:21;;;;;;;32.53;21.85;;;10.50;99.90;;;;;;5122103;27;20042;-78
2022/10/13 07:14:48;;;;;;;46.40;25.58;;;10.50;99.90;;;;;;5125834;27;20035;-79
2022/10/13 07:17:14;;;;;;;34.35;22.50;;;10.50;99.90;;;;;;5107052;27;20417;-79
2022/10/13 07:19:40;;;;;;;35.78;23.00;;;11.40;99.90;;;;;;5132908;27;20513;-79
2022/10/13 07:22:05;;;;;;;35.35;23.45;;;12.10;99.90;;;;;;5103051;27;20043;-79
2022/10/13 07:24:31;;;;;;;41.20;27.70;;;10.70;99.90;;;;;;5106887;27;20043;-78
2022/10/13 07:26:57;;;;;;;33.92;22.05;;;10.90;99.90;;;;;;5134334;27;20130;-80
2022/10/13 07:29:23;;;;;;;36.42;24.10;;;10.80;99.90;;;;;;5134483;27;20050;-79
2022/10/13 07:31:49;;;;;;;34.28;24.38;;;10.50;99.90;;;;;;5139496;27;20126;-79
2022/10/13 07:34:15;;;;;;;36.55;23.58;;;12.80;99.90;;;;;;5139845;27;20404;-79
2022/10/13 07:36:41;;;;;;;29.65;21.33;;;11.40;99.90;;;;;;5123274;27;20133;-79
2022/10/13 07:39:09;;;;;;;35.28;23.95;;;10.90;99.90;;;;;;5105918;27;20031;-79
2022/10/13 07:41:35;;;;;;;38.33;21.42;;;10.90;99.90;;;;;;5126135;27;20039;-79
2022/10/13 07:44:01;;;;;;;36.70;22.98;;;10.90;99.90;;;;;;5104960;27;20440;-80
2022/10/13 07:46:27;;;;;;;28.88;21.52;;;11.00;99.90;;;;;;5114213;27;20051;-81
2022/10/13 07:48:55;;;;;;;31.67;22.83;;;11.50;99.90;;;;;;5108408;27;20505;-77
2022/10/13 07:51:22;;;;;;;40.13;26.30;;;11.10;99.90;;;;;;5109146;27;20045;-77
2022/10/13 07:53:48;;;;;;;34.42;23.55;;;11.10;99.90;;;;;;5113905;27;20088;-79
2022/10/13 07:56:14;;;;;;;30.40;21.45;;;12.70;99.90;;;;;;5126379;27;20046;-77
2022/10/13 07:58:43;;;;;;;34.90;24.30;;;10.80;99.90;;;;;;5120912;27;20047;-78
2022/10/13 08:01:10;;;;;;;34.60;22.55;;;11.20;99.90;;;;;;5103161;27;20047;-81
2022/10/13 08:03:36;;;;;;;31.95;20.90;;;11.20;99.90;;;;;;5100734;27;20070;-78
2022/10/13 08:06:03;;;;;;;32.88;22.77;;;11.30;99.90;;;;;;5140682;27;20045;-81
2022/10/13 08:08:29;;;;;;;32.15;22.58;;;11.30;99.90;;;;;;5117290;27;20483;-83
2022/10/13 08:11:05;;;;;;;33.97;23.42;;;11.30;99.90;;;;;;5144107;27;20515;-80
2022/10/13 08:13:32;;;;;;;39.58;28.08;;;11.30;99.90;;;;;;5132177;27;20087;-80
2022/10/13 08:16:00;;;;;;;37.45;22.90;;;11.40;99.90;;;;;;5151774;27;20046;-79
2022/10/13 08:18:26;;;;;;;29.05;21.50;;;11.40;99.90;;;;;;5147018;27;20103;-80
2022/10/13 08:20:51;;;;;;;37.00;22.92;;;11.40;99.90;;;;;;5114868;27;20493;-80
2022/10/13 08:23:17;;;;;;;33.60;21.38;;;11.40;99.90;;;;;;5128884;27;20034;-79
2022/10/13 08:25:43;;;;;;;33.25;21.90;;;11.40;99.90;;;;;;5130405;27;20436;-78
2022/10/13 08:28:17;;;;;;;28.50;22.55;;;13.00;99.90;;;;;;5132510;27;20043;-81
2022/10/13 08:30:43;;;;;;;35.17;24.48;;;11.50;99.90;;;;;;5105038;27;20042;-82
2022/10/13 08:33:09;;;;;;;29.52;22.63;;;12.40;99.90;;;;;;5121121;27;20038;-78
2022/10/13 08:35:34;;;;;;;32.35;21.85;;;11.50;99.90;;;;;;5118542;27;20066;-79
2022/10/13 08:38:00;;;;;;;31.23;21.77;;;13.00;99.90;;;;;;5133849;27;20270;-78
2022/10/13 08:40:26;;;;;;;37.83;23.45;;;13.30;99.90;;;;;;5103533;27;20050;-79
2022/10/13 08:42:51;;;;;;;34.20;25.02;;;11.50;99.90;;;;;;5107391;27;20041;-78
2022/10/13 08:45:30;;;;;;;34.15;25.17;;;12.70;99.90;;;;;;5122222;27;20110;-79
2022/10/13 08:48:05;;;;;;;33.80;21.98;;;11.60;99.90;;;;;;5106563;27;20046;-78
2022/10/13 08:50:35;;;;;;;34.90;23.63;;;13.30;99.90;;;;;;5116077;27;20596;-81
2022/10/13 08:53:26;;;;;;;34.92;23.40;;;13.40;99.90;;;;;;5121437;27;20051;-78
2022/10/13 08:55:58;;;;;;;31.77;24.33;;;11.70;99.90;;;;;;5149030;27;20042;-80
2022/10/13 08:58:25;;;;;;;37.33;24.50;;;11.70;99.90;;;;;;5123876;27;20059;-78
2022/10/13 09:01:07;;;;;;;39.30;26.83;;;11.70;99.90;;;;;;5130603;27;20050;-79
2022/10/13 09:04:13;;;;;;;37.25;25.13;;;11.80;99.90;;;;;;5149149;27;20224;-79
2022/10/13 09:06:44;;;;;;;41.03;27.65;;;11.80;99.90;;;;;;5125708;27;20540;-79
2022/10/13 09:09:11;;;;;;;45.33;28.10;;;11.80;99.90;;;;;;5121353;27;20039;-77
2022/10/13 09:11:42;;;;;;;36.13;26.02;;;11.90;99.90;;;;;;5130353;27;20060;-77
2022/10/13 09:14:21;;;;;;;48.28;27.23;;;12.00;99.90;;;;;;5116731;27;20031;-79
2022/10/13 09:16:48;;;;;;;32.30;25.00;;;12.90;99.90;;;;;;5114605;27;20031;-78
2022/10/13 09:19:19;;;;;;;43.63;28.38;;;11.90;99.90;;;;;;5103489;27;20418;-78
2022/10/13 09:21:46;;;;;;;39.50;26.50;;;12.00;99.90;;;;;;5128689;27;20494;-78
2022/10/13 09:24:18;;;;;;;47.58;30.27;;;12.00;99.90;;;;;;5145654;27;20034;-78
2022/10/13 09:26:45;;;;;;;42.85;29.33;;;12.90;99.90;;;;;;5121906;27;20306;-79
2022/10/13 09:29:23;;;;;;;42.85;27.63;;;12.50;99.90;;;;;;5123003;27;20058;-79
2022/10/13 09:31:50;;;;;;;35.63;25.77;;;12.10;99.90;;;;;;5130486;27;20038;-79
2022/10/13 09:34:18;;;;;;;38.83;26.25;;;12.90;99.90;;;;;;5121210;27;20043;-79
2022/10/13 09:37:03;;;;;;;35.72;26.77;;;12.10;99.90;;;;;;5104468;27;20078;-77
2022/10/13 09:39:30;;;;;;;34.15;25.38;;;12.20;99.90;;;;;;5132073;27;20115;-77
2022/10/13 09:42:32;;;;;;;35.70;26.40;;;12.30;99.90;;;;;;5122094;27;20047;-79
2022/10/13 09:45:16;;;;;;;44.33;27.90;;;12.50;99.90;;;;;;5024937;28;20049;-80
2022/10/13 09:47:50;;;;;;;40.10;25.38;;;12.30;99.90;;;;;;5104350;27;20051;-78
2022/10/13 09:50:31;;;;;;;40.58;25.42;;;13.60;99.90;;;;;;5096488;27;20475;-77
2022/10/13 09:53:29;;;;;;;45.00;29.95;;;12.30;99.90;;;;;;5103074;27;20608;-79
2022/10/13 09:56:18;;;;;;;33.95;24.92;;;12.40;99.90;;;;;;5121856;27;20074;-77
2022/10/13 09:59:01;;;;;;;37.05;25.17;;;12.40;99.90;;;;;;5138158;27;20043;-79
2022/10/13 10:01:32;;;;;;;35.15;24.00;;;12.40;99.90;;;;;;5123253;27;20054;-81
2022/10/13 10:04:08;;;;;;;35.95;24.58;;;13.30;99.90;;;;;;5120411;27;20042;-83
2022/10/13 10:06:36;;;;;;;34.40;24.85;;;12.50;99.90;;;;;;5116588;27;20432;-81
2022/10/13 10:09:32;;;;;;;36.03;23.77;;;13.80;99.90;;;;;;5119798;27;20254;-80
2022/10/13 10:11:59;;;;;;;26.88;22.02;;;12.60;99.90;;;;;;5104724;27;20050;-84
2022/10/13 10:14:27;;;;;;;37.92;24.08;;;14.20;99.90;;;;;;5104553;27;20118;-81
2022/10/13 10:16:58;;;;;;;33.22;23.60;;;12.70;99.90;;;;;;5114527;27;20051;-79
2022/10/13 10:19:36;;;;;;;34.88;24.00;;;13.80;99.90;;;;;;5130648;27;20171;-78
2022/10/13 10:22:17;;;;;;;29.90;22.33;;;12.70;99.90;;;;;;5146092;27;20047;-78
2022/10/13 10:25:06;;;;;;;29.13;22.65;;;12.70;99.90;;;;;;5093438;27;20058;-78
2022/10/13 10:27:41;;;;;;;32.70;23.10;;;12.70;99.90;;;;;;5103206;27;20402;-77
2022/10/13 10:30:16;;;;;;;32.28;22.25;;;12.60;99.90;;;;;;5107654;27;20125;-78
2022/10/13 10:32:57;;;;;;;26.35;21.08;;;12.70;99.90;;;;;;5129489;27;20043;-78
2022/10/13 10:35:46;;;;;;;30.13;22.00;;;12.70;99.90;;;;;;5108208;27;20130;-78
2022/10/13 10:38:27;;;;;;;31.45;23.02;;;12.70;99.90;;;;;;5110223;27;20050;-79
2022/10/13 10:41:12;;;;;;;32.50;24.85;;;12.60;99.90;;;;;;5137700;27;20125;-80
2022/10/13 10:44:09;;;;;;;36.05;25.70;;;12.70;99.90;;;;;;5125827;27;20570;-81
2022/10/13 10:46:41;;;;;;;37.92;26.75;;;12.70;99.90;;;;;;5102454;27;20513;-79
2022/10/13 10:49:18;;;;;;;33.85;27.15;;;13.60;99.90;;;;;;5111749;27;20456;-80
2022/10/13 10:51:45;;;;;;;34.03;24.52;;;12.60;99.90;;;;;;5091790;28;20047;-81
2022/10/13 10:54:19;;;;;;;29.10;22.38;;;12.60;99.90;;;;;;5101645;27;20027;-81
2022/10/13 10:56:59;;;;;;;30.67;23.75;;;12.60;99.90;;;;;;5110952;28;20070;-79
2022/10/13 10:59:58;;;;;;;30.30;23.27;;;12.70;99.90;;;;;;5101762;28;20066;-80
2022/10/13 11:02:55;;;;;;;31.77;24.17;;;12.70;99.90;;;;;;5103443;27;20117;-82
2022/10/13 11:05:21;;;;;;;27.05;20.38;;;13.50;99.90;;;;;;5119070;28;20059;-82
2022/10/13 11:07:46;;;;;;;29.42;23.15;;;12.80;99.90;;;;;;5118246;27;20070;-81
2022/10/13 11:10:12;;;;;;;30.83;24.08;;;12.70;99.90;;;;;;5122546;27;20039;-84
2022/10/13 11:13:25;;;;;;;28.02;22.65;;;12.80;99.90;;;;;;5144047;27;20115;-85
2022/10/13 11:15:51;;;;;;;26.48;20.80;;;12.80;99.90;;;;;;5128092;27;20031;-84
2022/10/13 11:18:54;;;;;;;26.90;21.77;;;12.80;99.90;;;;;;5093678;28;20126;-80
2022/10/13 11:21:21;;;;;;;26.95;20.20;;;12.90;99.90;;;;;;5118048;28;20082;-78
2022/10/13 11:23:48;;;;;;;24.33;19.02;;;12.90;99.90;;;;;;5101869;27;20095;-79
2022/10/13 11:26:30;;;;;;;28.10;21.52;;;12.50;99.90;;;;;;5113495;27;20130;-79
2022/10/13 11:28:57;;;;;;;23.83;21.10;;;13.00;99.90;;;;;;5120292;27;20047;-78
2022/10/13 11:31:24;;;;;;;26.33;22.33;;;14.10;99.90;;;;;;5130735;27;20050;-78
2022/10/13 11:33:51;;;;;;;26.40;20.30;;;13.00;99.90;;;;;;5119537;28;20071;-78
2022/10/13 11:36:48;;;;;;;30.27;22.98;;;13.10;99.90;;;;;;5148830;27;20442;-80
2022/10/13 11:39:49;;;;;;;31.83;23.00;;;12.10;99.90;;;;;;5099940;27;20039;-79
2022/10/13 11:42:51;;;;;;;28.42;21.80;;;13.10;99.90;;;;;;5126392;27;20061;-79
2022/10/13 11:45:25;;;;;;;28.50;22.55;;;13.10;99.90;;;;;;5108571;28;20115;-81
2022/10/13 11:48:29;;;;;;;25.42;20.90;;;13.20;99.90;;;;;;5127105;27;20050;-80
2022/10/13 11:51:27;;;;;;;26.33;21.48;;;13.20;99.90;;;;;;5101178;27;20126;-80
2022/10/13 11:54:12;;;;;;;24.13;21.08;;;13.30;99.90;;;;;;5130747;27;20050;-78
2022/10/13 11:56:50;;;;;;;27.00;20.70;;;14.80;99.90;;;;;;5120753;27;20100;-83
2022/10/13 11:59:33;;;;;;;27.98;23.15;;;13.70;99.90;;;;;;5097958;27;20079;-82
2022/10/13 12:02:08;;;;;;;26.48;22.42;;;14.10;99.90;;;;;;5100563;27;20035;-79
2022/10/13 12:04:34;;;;;;;26.25;22.85;;;13.30;99.90;;;;;;5141793;27;20035;-78
2022/10/13 12:07:06;;;;;;;29.45;23.27;;;13.30;99.90;;;;;;5125639;27;20041;-80
2022/10/13 12:09:35;;;;;;;31.70;22.08;;;14.80;99.90;;;;;;5111641;27;20079;-80
2022/10/13 12:12:13;;;;;;;25.65;20.48;;;13.40;99.90;;;;;;5099395;27;20405;-82
2022/10/13 12:14:44;;;;;;;32.22;21.08;;;13.50;99.90;;;;;;5111204;27;20035;-84
2022/10/13 12:17:43;;;;;;;29.20;21.42;;;13.30;99.90;;;;;;5110279;27;20545;-83
2022/10/13 12:20:30;;;;;;;27.38;21.55;;;13.40;99.90;;;;;;5099551;27;20047;-82
2022/10/13 12:22:56;;;;;;;26.67;19.58;;;13.40;99.90;;;;;;5112789;27;20043;-80
2022/10/13 12:25:25;;;;;;;28.65;22.15;;;15.00;99.90;;;;;;5114915;27;20031;-81
2022/10/13 12:27:54;;;;;;;26.02;20.02;;;14.10;99.90;;;;;;5148088;27;20064;-82
2022/10/13 12:30:24;;;;;;;22.48;19.40;;;15.00;99.90;;;;;;5113051;27;20053;-80
2022/10/13 12:32:52;;;;;;;23.17;19.40;;;14.80;99.90;;;;;;5103826;27;20497;-77
2022/10/13 12:35:24;;;;;;;22.63;18.80;;;13.50;99.90;;;;;;5108720;27;21024;-80
2022/10/13 12:37:51;;;;;;;22.33;18.95;;;13.50;99.90;;;;;;5100474;27;20409;-80
2022/10/13 12:40:18;;;;;;;25.15;21.75;;;13.60;99.90;;;;;;5115485;27;20300;-80
2022/10/13 12:42:45;;;;;;;23.80;20.30;;;13.50;99.90;;;;;;5147616;27;20043;-79
2022/10/13 12:45:19;;;;;;;25.25;20.02;;;13.60;99.90;;;;;;5130688;27;20045;-79
2022/10/13 12:47:46;;;;;;;;;;;13.50;99.90;;;;;;5102094;27;20043;-83
2022/10/13 12:50:29;;;;;;;27.00;19.75;;;13.80;99.90;;;;;;5114313;27;20014;-84